Aérodrome :
LOGIN :

S'inscrire | Disclaimer

   EN    FR    IT 

 










Légende :    VFR   VFR Marginal   IFR   IFR Intensif   IFR Très Intensif
Visi : 
Plafond : 
>= 8 km
>= 3000ft
5 à 8 km
1000 à 3000 ft
1500m à 5 km
500 à 1000 ft
800 à 1500m
200 à 500 ft
< 800m
< 200 ft
Symboles :   Orages  Brouillard  Fortes neiges  Fortes précipitations  Vent > 20 kt
SIGMETs :   Divers  Orages  Givrage  Turbulence  Onde Orograph.  Cendres Volcan.






- Altitude de l'aérodrome : 3360 ft
- Code IATA : QSF


DAAS - 8 Mai 45

DERNIER METAR :
  • 171400Z 27015KT 240V320 9999 SCT026 09/M02 Q1015

METARs EXPIRÉS :
  • 171300Z 26009KT 9999 SCT026 09/00 Q1016
  • 171200Z 26012KT 9999 SCT026 08/00 Q1016

TAF TAF DAAS
Valide du 17 à 12h jusqu'au 18 à 12h UTC


171100Z 1712/1812 26014KT 9999 FEW020TCU SCT026
TEMPO 1712/1718 FEW026CB
BECMG 1718/1720 22008KT FEW026
PROB30
TEMPO 1802/1806 VRB02KT 3000 BR FEW008
BECMG 1809/1811 22018KT



MET'MAP, la Météo Aéronautique d'un coup d'oeil ! - Copyright ORBIFLY Décembre 2007 - Disclaimer

ORBIFLY MET'MAP TEAM :

Programmation & Développement : Alexandra Zaïnal
Conception & Développement : Baudouin d'Aumeries
Co-Programmation & Développement : Marc-Olivier Méhu
Soutien technique & logistique : Manuel Goepfert

Contact : metmap@orbifly.com




SOURCES & CREDITS :

   NOAA